Time;durP1;ratioP1;P1;durP2;ratioP2;P2;SDS_P1;SDS_P2;PMS_P1;PMS_P2;Temp;Humidity;BMP_temperature;BMP_pressure;BME280_temperature;BME280_humidity;BME280_pressure;Samples;Min_cycle;Max_cycle;Signal;HPM_P1;HPM_P2
2022/11/22 00:00:41;;;;;;;96.10;36.40;;;;;;;1.06;78.51;98808.19;210093;1295;140221;-68
2022/11/22 00:05:51;;;;;;;84.10;32.50;;;;;;;1.04;78.60;98802.44;210048;1295;140620;-68
2022/11/22 00:10:55;;;;;;;82.20;31.60;;;;;;;1.07;78.43;98807.75;210376;1297;139945;-68
2022/11/22 00:16:03;;;;;;;84.00;37.10;;;;;;;1.12;78.49;98809.71;210628;1288;140061;-67
2022/11/22 00:21:07;;;;;;;84.80;33.30;;;;;;;1.09;78.50;98811.88;210237;1295;141166;-68
2022/11/22 00:26:11;;;;;;;86.90;41.80;;;;;;;1.11;78.55;98818.63;210362;1298;139224;-66
2022/11/22 00:31:14;;;;;;;86.90;38.90;;;;;;;1.12;78.87;98826.15;209734;1297;140450;-67
2022/11/22 00:36:18;;;;;;;94.10;37.20;;;;;;;1.11;79.09;98838.29;210159;1297;140801;-69
2022/11/22 00:41:22;;;;;;;86.20;35.30;;;;;;;1.10;78.74;98844.63;210207;1294;140077;-69
2022/11/22 00:46:25;;;;;;;70.70;32.30;;;;;;;1.16;78.53;98853.98;210712;1294;140518;-67
2022/11/22 00:51:29;;;;;;;74.00;32.10;;;;;;;1.18;78.62;98851.98;210325;1295;139879;-67
2022/11/22 00:56:32;;;;;;;69.10;32.30;;;;;;;1.19;78.70;98854.52;210277;1297;140038;-67
2022/11/22 01:01:35;;;;;;;67.00;27.80;;;;;;;1.16;78.68;98857.09;210648;1287;140027;-69
2022/11/22 01:06:39;;;;;;;55.70;22.00;;;;;;;1.12;78.76;98857.89;209890;1297;140387;-68
2022/11/22 01:11:43;;;;;;;55.60;19.90;;;;;;;1.08;78.50;98865.70;210302;1297;140000;-67
2022/11/22 01:16:47;;;;;;;54.20;22.70;;;;;;;1.15;78.52;98872.39;210316;1295;139531;-68
2022/11/22 01:21:51;;;;;;;57.70;25.20;;;;;;;1.20;78.66;98872.10;210361;1297;139897;-68
2022/11/22 01:26:55;;;;;;;51.60;21.70;;;;;;;1.21;78.55;98865.75;210466;1273;139236;-69
2022/11/22 01:31:59;;;;;;;54.90;24.40;;;;;;;1.10;78.03;98851.77;209982;1290;140717;-70
2022/11/22 01:37:02;;;;;;;59.80;24.70;;;;;;;1.03;78.01;98853.43;210579;1294;140199;-67
2022/11/22 01:42:07;;;;;;;60.00;25.30;;;;;;;0.96;78.19;98852.18;210245;1294;139762;-68
2022/11/22 01:47:17;;;;;;;65.70;26.70;;;;;;;0.94;78.54;98860.73;210136;1290;140055;-68
2022/11/22 01:52:24;;;;;;;44.80;19.50;;;;;;;0.97;78.61;98859.14;210613;1290;140370;-69
2022/11/22 01:57:32;;;;;;;52.70;21.50;;;;;;;0.93;78.34;98846.60;210210;1297;140453;-69
2022/11/22 02:02:36;;;;;;;59.00;25.20;;;;;;;0.94;78.06;98847.05;210370;1296;141792;-69
2022/11/22 02:07:46;;;;;;;39.50;17.50;;;;;;;0.88;78.29;98840.61;209922;1296;138890;-69
2022/11/22 02:12:51;;;;;;;51.50;20.80;;;;;;;0.74;78.14;98840.48;210250;1297;139555;-67
2022/11/22 02:17:57;;;;;;;40.60;17.80;;;;;;;0.69;78.01;98833.36;210249;1295;140331;-67
2022/11/22 02:23:22;;;;;;;32.60;15.30;;;;;;;0.60;78.35;98833.35;210251;1297;139724;-67
2022/11/22 02:28:31;;;;;;;42.30;18.60;;;;;;;0.54;78.19;98830.45;210186;1294;139129;-65
2022/11/22 02:33:35;;;;;;;34.90;15.60;;;;;;;0.50;78.25;98833.14;209665;1291;140997;-66
2022/11/22 02:38:39;;;;;;;43.60;19.00;;;;;;;0.36;78.33;98831.48;210513;1297;139994;-66
2022/11/22 02:43:46;;;;;;;53.90;19.30;;;;;;;0.25;78.57;98824.95;210290;1297;139833;-65
2022/11/22 02:48:50;;;;;;;40.20;17.00;;;;;;;0.37;78.58;98837.98;210167;1288;139478;-66
2022/11/22 02:53:55;;;;;;;49.80;20.40;;;;;;;0.35;78.35;98839.30;210213;1294;139917;-66
2022/11/22 02:58:59;;;;;;;33.80;14.00;;;;;;;0.32;79.26;98839.80;210340;1297;139571;-65
2022/11/22 03:04:03;;;;;;;59.00;23.00;;;;;;;0.33;78.95;98823.01;210293;1301;141983;-65
2022/11/22 03:09:07;;;;;;;45.00;21.20;;;;;;;0.40;79.08;98822.12;210239;1298;140367;-68
2022/11/22 03:14:10;;;;;;;62.30;23.40;;;;;;;0.27;78.85;98819.39;210272;1297;141631;-67
2022/11/22 03:19:14;;;;;;;66.20;26.60;;;;;;;0.21;78.99;98814.63;210356;1295;139725;-67
2022/11/22 03:24:19;;;;;;;64.40;23.70;;;;;;;0.26;79.14;98807.49;209953;1293;140704;-67
2022/11/22 03:29:22;;;;;;;42.50;19.60;;;;;;;0.34;79.54;98805.10;210132;1298;140180;-67
2022/11/22 03:34:26;;;;;;;56.70;21.10;;;;;;;0.30;79.37;98808.81;210554;1296;139599;-69
2022/11/22 03:39:29;;;;;;;55.20;21.00;;;;;;;0.28;79.52;98813.59;210435;1297;140938;-68
2022/11/22 03:44:33;;;;;;;43.20;17.70;;;;;;;0.19;79.24;98819.29;210263;1293;139669;-69
2022/11/22 03:49:37;;;;;;;52.30;18.50;;;;;;;0.08;79.54;98827.74;210075;1294;140477;-68
2022/11/22 03:54:40;;;;;;;54.20;24.30;;;;;;;0.13;79.87;98828.84;210131;1296;139721;-68
2022/11/22 03:59:44;;;;;;;39.20;16.70;;;;;;;0.24;80.02;98831.23;210255;1297;139713;-68
2022/11/22 04:04:47;;;;;;;50.50;19.60;;;;;;;0.21;79.80;98834.23;210504;1289;139656;-69
2022/11/22 04:09:50;;;;;;;52.30;18.50;;;;;;;0.22;79.74;98843.10;210058;1288;141333;-67
2022/11/22 04:15:06;;;;;;;63.40;25.30;;;;;;;0.34;80.48;98841.16;210378;1297;140019;-66
2022/11/22 04:25:47;;;;;;;39.80;16.60;;;;;;;0.50;80.49;98844.05;210395;1297;139994;-67
2022/11/22 04:36:14;;;;;;;40.10;18.90;;;;;;;0.48;79.89;98823.96;210284;1294;139903;-67
2022/11/22 04:41:19;;;;;;;55.90;23.00;;;;;;;0.37;80.04;98824.65;210243;1294;140451;-67
2022/11/22 04:46:23;;;;;;;39.90;16.30;;;;;;;0.40;80.69;98822.81;210112;1284;139456;-67
2022/11/22 04:56:57;;;;;;;28.80;14.90;;;;;;;0.48;80.54;98820.48;210212;1295;140159;-65
2022/11/22 05:02:00;;;;;;;43.20;19.80;;;;;;;0.42;80.47;98818.84;210185;1300;144651;-67
2022/11/22 05:07:04;;;;;;;42.80;15.10;;;;;;;0.39;80.75;98826.56;210005;1289;141488;-67
2022/11/22 05:12:08;;;;;;;29.00;13.20;;;;;;;0.38;81.05;98823.52;210623;1289;204075;-66
2022/11/22 05:17:12;;;;;;;32.10;15.30;;;;;;;0.36;81.06;98822.77;210204;1296;248587;-67
2022/11/22 05:22:16;;;;;;;49.70;24.80;;;;;;;0.38;81.19;98819.85;210119;1294;140371;-67
2022/11/22 05:27:19;;;;;;;36.20;16.70;;;;;;;0.48;81.14;98821.94;210550;1285;139894;-66
2022/11/22 05:32:23;;;;;;;19.40;7.80;;;;;;;0.50;81.47;98819.38;210955;1295;140371;-67
2022/11/22 05:37:28;;;;;;;46.50;17.20;;;;;;;0.53;81.33;98818.96;210498;1285;139172;-67
2022/11/22 05:42:33;;;;;;;49.00;23.80;;;;;;;0.60;81.07;98821.20;210013;1277;141776;-67
2022/11/22 05:47:36;;;;;;;46.30;20.30;;;;;;;0.71;81.18;98825.06;209915;1294;141236;-67
2022/11/22 05:52:40;;;;;;;29.60;12.30;;;;;;;0.74;81.79;98831.70;210440;1287;140205;-67
2022/11/22 05:57:44;;;;;;;45.00;18.30;;;;;;;0.75;81.40;98824.31;210528;1297;140536;-66
2022/11/22 06:02:48;;;;;;;41.20;20.30;;;;;;;0.77;81.33;98820.86;210265;1294;140928;-68
2022/11/22 06:07:52;;;;;;;54.80;23.40;;;;;;;0.76;81.69;98828.89;209966;1289;140973;-67
2022/11/22 06:12:55;;;;;;;45.90;19.90;;;;;;;0.76;81.90;98826.63;210220;1294;139380;-69
2022/11/22 06:17:59;;;;;;;34.50;17.30;;;;;;;0.78;81.26;98823.65;210864;1295;140249;-69
2022/11/22 06:23:05;;;;;;;46.50;17.40;;;;;;;0.78;81.90;98823.56;210643;1294;139824;-66
2022/11/22 06:28:11;;;;;;;31.70;15.10;;;;;;;0.76;81.59;98823.55;210114;1296;140997;-66
2022/11/22 06:33:14;;;;;;;32.00;14.80;;;;;;;0.72;82.05;98830.55;210181;1297;140139;-69
2022/11/22 06:38:18;;;;;;;50.50;22.10;;;;;;;0.74;81.93;98835.56;209895;1296;139946;-68
2022/11/22 06:43:21;;;;;;;47.60;18.80;;;;;;;0.77;82.17;98835.14;209768;1297;140604;-68
2022/11/22 06:48:28;;;;;;;38.60;17.30;;;;;;;0.75;82.09;98844.05;209919;1288;140483;-67
2022/11/22 06:53:34;;;;;;;35.30;17.20;;;;;;;0.74;82.26;98843.44;209824;1287;139994;-66
2022/11/22 06:58:54;;;;;;;45.00;22.80;;;;;;;0.77;82.39;98855.61;209989;1297;140293;-67
2022/11/22 07:03:58;;;;;;;51.50;22.00;;;;;;;0.81;82.51;98854.34;210050;1288;140045;-67
2022/11/22 07:09:04;;;;;;;38.90;20.90;;;;;;;0.90;82.87;98854.67;210014;1297;140084;-67
2022/11/22 07:14:07;;;;;;;88.20;30.50;;;;;;;1.04;82.64;98855.38;209935;1288;140663;-65
2022/11/22 07:19:11;;;;;;;83.50;31.30;;;;;;;1.04;82.46;98855.62;210115;1298;141516;-66
2022/11/22 07:24:15;;;;;;;48.00;21.80;;;;;;;1.06;82.56;98869.96;210154;1297;140957;-65
2022/11/22 07:29:19;;;;;;;45.30;20.40;;;;;;;1.14;82.67;98880.23;210209;1294;139638;-68
2022/11/22 07:34:22;;;;;;;68.60;30.30;;;;;;;1.25;82.40;98872.06;209865;1295;141308;-68
2022/11/22 07:39:25;;;;;;;40.50;17.50;;;;;;;1.34;82.36;98870.92;209998;1297;140311;-66
2022/11/22 07:44:29;;;;;;;45.30;21.10;;;;;;;1.28;82.32;98855.43;210225;1304;139854;-63
2022/11/22 07:49:33;;;;;;;44.90;20.00;;;;;;;1.30;82.36;98858.40;210143;1301;141683;-67
2022/11/22 07:54:37;;;;;;;48.20;20.00;;;;;;;1.30;82.43;98858.63;210066;1295;140915;-69
2022/11/22 07:59:41;;;;;;;40.60;17.80;;;;;;;1.34;82.43;98865.72;210303;1297;140212;-66
2022/11/22 08:04:49;;;;;;;42.40;19.80;;;;;;;1.38;82.54;98863.04;210010;1297;139126;-66
2022/11/22 08:09:53;;;;;;;41.90;21.00;;;;;;;1.42;82.25;98861.31;209931;1298;141664;-67
2022/11/22 08:14:56;;;;;;;47.00;20.40;;;;;;;1.37;82.14;98857.52;210235;1297;139825;-63
2022/11/22 08:20:00;;;;;;;37.70;19.30;;;;;;;1.38;82.27;98857.77;210150;1280;140457;-66
2022/11/22 08:25:03;;;;;;;39.70;20.60;;;;;;;1.46;82.70;98859.71;210089;1297;139889;-64
2022/11/22 08:30:09;;;;;;;44.20;18.90;;;;;;;1.55;81.76;98858.91;209764;1294;140150;-68
2022/11/22 08:35:13;;;;;;;38.80;18.00;;;;;;;1.54;82.21;98859.06;209810;1297;139878;-65
2022/11/22 08:40:16;;;;;;;47.70;20.70;;;;;;;1.59;82.25;98860.83;210142;1293;140583;-66
2022/11/22 08:45:19;;;;;;;40.60;20.40;;;;;;;1.59;82.18;98861.59;210108;1297;139955;-68
2022/11/22 08:50:23;;;;;;;43.50;22.80;;;;;;;1.68;82.31;98867.20;210324;1297;141233;-67
2022/11/22 08:55:26;;;;;;;33.60;17.40;;;;;;;1.80;82.36;98887.85;210002;1289;140523;-65
2022/11/22 09:00:30;;;;;;;41.30;19.00;;;;;;;1.96;82.03;98899.07;210163;1298;139953;-64
2022/11/22 09:05:36;;;;;;;34.00;18.80;;;;;;;1.96;81.63;98906.79;209761;1286;139539;-63
2022/11/22 09:11:05;;;;;;;33.50;18.80;;;;;;;1.95;81.66;98920.82;210306;1288;140214;-64
2022/11/22 09:16:12;;;;;;;32.30;16.90;;;;;;;1.95;81.49;98930.13;210100;1297;141142;-68
2022/11/22 09:21:18;;;;;;;32.60;17.10;;;;;;;1.93;81.40;98922.11;209860;1291;140683;-68
2022/11/22 09:26:24;;;;;;;35.50;19.60;;;;;;;1.93;81.41;98923.56;210026;1289;140401;-67
2022/11/22 09:31:30;;;;;;;46.00;21.80;;;;;;;1.89;81.45;98925.44;210031;1297;139470;-67
2022/11/22 09:36:33;;;;;;;28.80;15.90;;;;;;;1.91;81.34;98926.71;209901;1288;140299;-67
2022/11/22 09:41:55;;;;;;;39.30;21.70;;;;;;;1.98;81.60;98912.70;210168;1296;139594;-67
2022/11/22 09:47:15;;;;;;;36.30;17.30;;;;;;;2.04;81.41;98892.45;209988;1301;141042;-67
2022/11/22 09:52:41;;;;;;;153.80;50.20;;;;;;;2.06;81.34;98889.88;210067;1302;140957;-68
2022/11/22 09:58:08;;;;;;;68.20;31.70;;;;;;;2.15;81.29;98881.29;210090;1300;142827;-67
2022/11/22 10:03:27;;;;;;;42.50;20.50;;;;;;;2.28;81.29;98877.98;210132;1300;140331;-68
2022/11/22 10:08:45;;;;;;;37.80;22.60;;;;;;;2.36;81.01;98871.03;210078;1300;141371;-68
2022/11/22 10:13:58;;;;;;;45.10;23.10;;;;;;;2.41;80.69;98875.05;210095;1305;139818;-68
2022/11/22 10:19:17;;;;;;;40.40;22.60;;;;;;;2.42;80.77;98869.50;209914;1295;141717;-67
2022/11/22 10:24:21;;;;;;;41.10;20.80;;;;;;;2.54;81.28;98864.61;210246;1298;139740;-68
2022/11/22 10:29:47;;;;;;;38.10;21.30;;;;;;;2.69;80.72;98870.88;210105;1293;140592;-67
2022/11/22 10:35:09;;;;;;;41.30;22.80;;;;;;;2.66;80.34;98872.83;209733;1296;140865;-67
2022/11/22 10:40:22;;;;;;;37.00;20.90;;;;;;;2.72;80.69;98873.87;210072;1295;139698;-67
2022/11/22 10:45:35;;;;;;;30.60;20.10;;;;;;;2.89;80.47;98875.13;210151;1295;141321;-67
2022/11/22 10:50:52;;;;;;;39.80;22.60;;;;;;;2.99;80.63;98876.45;210182;1293;140492;-67
2022/11/22 10:56:29;;;;;;;42.60;20.90;;;;;;;3.03;79.99;98876.48;208643;1293;140534;-67
2022/11/22 11:02:10;;;;;;;46.40;25.40;;;;;;;2.99;80.17;98882.85;209516;1289;271354;-68
2022/11/22 11:07:20;;;;;;;35.90;20.30;;;;;;;3.01;80.23;98871.38;210206;1295;140138;-68
2022/11/22 11:12:40;;;;;;;42.40;23.30;;;;;;;3.03;80.24;98869.35;209072;1295;139803;-67
2022/11/22 11:17:48;;;;;;;41.50;17.40;;;;;;;3.07;80.04;98864.77;210088;1295;141120;-68
2022/11/22 11:22:51;;;;;;;;;;;;;;;3.07;80.14;98861.17;210148;1301;139847;-68
2022/11/22 11:28:16;;;;;;;36.20;19.50;;;;;;;3.13;80.18;98848.96;210853;1300;136770;-68
2022/11/22 11:33:26;;;;;;;60.90;26.50;;;;;;;3.14;80.20;98838.34;210060;1295;140098;-68
2022/11/22 11:38:57;;;;;;;47.90;21.80;;;;;;;3.38;80.56;98827.22;209608;1294;140674;-67
2022/11/22 11:44:04;;;;;;;38.60;17.50;;;;;;;3.51;79.91;98815.52;209959;1300;140103;-67
2022/11/22 11:49:17;;;;;;;45.90;24.10;;;;;;;3.62;79.91;98813.42;209892;1295;140126;-63
2022/11/22 11:54:28;;;;;;;49.70;25.40;;;;;;;3.83;80.03;98818.60;209936;1295;140507;-64
2022/11/22 11:59:44;;;;;;;45.50;21.60;;;;;;;3.91;79.72;98813.85;210148;1297;140526;-68
2022/11/22 12:04:54;;;;;;;58.20;28.10;;;;;;;4.02;79.80;98811.33;210043;1300;139138;-68
2022/11/22 12:09:59;;;;;;;63.30;29.00;;;;;;;4.22;79.49;98807.56;210105;1295;140612;-69
2022/11/22 12:15:21;;;;;;;41.80;21.70;;;;;;;4.31;79.50;98797.84;210118;1300;139721;-68
2022/11/22 12:20:41;;;;;;;45.30;22.00;;;;;;;4.37;79.37;98785.86;210372;1281;141374;-68
2022/11/22 12:25:47;;;;;;;39.00;20.30;;;;;;;4.35;78.84;98786.27;210178;1303;140072;-68
2022/11/22 12:31:00;;;;;;;39.30;19.50;;;;;;;4.31;78.22;98779.86;210074;1294;139984;-68
2022/11/22 12:36:10;;;;;;;40.30;19.50;;;;;;;3.98;77.61;98789.89;210051;1296;139631;-69
2022/11/22 12:41:17;;;;;;;45.00;24.20;;;;;;;3.61;77.74;98798.03;210098;1296;150789;-68
2022/11/22 12:46:28;;;;;;;45.30;23.60;;;;;;;3.38;78.25;98809.15;210169;1300;140554;-69
2022/11/22 12:51:41;;;;;;;40.30;20.00;;;;;;;3.34;78.61;98812.34;210160;1300;140497;-68
2022/11/22 12:56:55;;;;;;;45.60;20.90;;;;;;;3.35;78.74;98812.30;210284;1295;141257;-68
2022/11/22 13:01:59;;;;;;;44.10;24.90;;;;;;;3.26;78.49;98808.77;210137;1302;140266;-68
2022/11/22 13:07:13;;;;;;;44.40;26.10;;;;;;;3.28;78.76;98809.61;210224;1297;139814;-70
2022/11/22 13:12:32;;;;;;;53.60;25.10;;;;;;;3.32;78.90;98810.49;209931;1298;140460;-69
2022/11/22 13:17:37;;;;;;;46.60;24.00;;;;;;;3.47;78.97;98809.41;210064;1295;139716;-69
2022/11/22 13:22:52;;;;;;;43.40;24.00;;;;;;;3.48;78.65;98808.77;210080;1296;140309;-68
2022/11/22 13:27:59;;;;;;;52.10;29.70;;;;;;;3.26;78.12;98805.11;210087;1295;140823;-69
2022/11/22 13:33:03;;;;;;;;;;;;;;;3.06;78.44;98806.26;209495;1297;139942;-70
2022/11/22 13:38:15;;;;;;;42.60;21.00;;;;;;;2.80;78.33;98799.23;208126;1294;126287;-69
2022/11/22 13:43:19;;;;;;;96.40;46.00;;;;;;;2.65;78.54;98796.85;210068;1297;139949;-69
2022/11/22 13:48:40;;;;;;;52.00;22.80;;;;;;;2.64;79.11;98793.02;208044;1296;139016;-69
2022/11/22 13:53:51;;;;;;;59.80;30.10;;;;;;;2.66;79.02;98794.25;210045;1287;151207;-67
2022/11/22 13:59:14;;;;;;;46.30;23.80;;;;;;;2.68;79.10;98788.02;209743;1297;141103;-67
2022/11/22 14:04:25;;;;;;;49.40;25.90;;;;;;;2.60;78.95;98790.14;210169;1288;140355;-65
2022/11/22 14:09:57;;;;;;;51.10;27.30;;;;;;;2.57;79.06;98787.63;209996;1297;139354;-66
2022/11/22 14:15:38;;;;;;;59.60;29.90;;;;;;;2.64;79.43;98789.20;210075;1297;141728;-67
2022/11/22 14:20:54;;;;;;;42.70;23.60;;;;;;;2.70;79.49;98793.71;209990;1300;247387;-68
2022/11/22 14:26:27;;;;;;;47.20;22.20;;;;;;;2.64;78.96;98797.30;210080;1296;140940;-67
2022/11/22 14:31:33;;;;;;;40.20;24.80;;;;;;;2.60;78.98;98798.31;210007;1295;142088;-68
2022/11/22 14:36:37;;;;;;;50.10;28.00;;;;;;;2.59;79.41;98795.85;209900;1295;140768;-67
2022/11/22 14:41:43;;;;;;;45.90;21.50;;;;;;;2.53;79.27;98788.09;210012;1296;140223;-68
2022/11/22 14:46:57;;;;;;;51.50;26.40;;;;;;;2.42;79.10;98789.66;209939;1298;244695;-64
2022/11/22 14:52:20;;;;;;;51.50;25.70;;;;;;;2.39;79.14;98785.66;209973;1297;140476;-68
2022/11/22 14:57:34;;;;;;;47.00;24.20;;;;;;;2.29;79.16;98792.21;207251;1296;139425;-64
2022/11/22 15:03:12;;;;;;;47.40;24.80;;;;;;;2.11;79.10;98808.86;209605;1298;224090;-68
2022/11/22 15:09:04;;;;;;;54.90;28.20;;;;;;;2.12;79.31;98807.86;209843;1302;139626;-67
2022/11/22 15:14:57;;;;;;;52.60;24.30;;;;;;;2.13;79.72;98812.91;209767;1297;245734;-67
2022/11/22 15:20:41;;;;;;;48.70;25.80;;;;;;;2.10;79.47;98820.19;208759;1296;248032;-64
2022/11/22 15:26:20;;;;;;;119.30;39.30;;;;;;;2.08;79.66;98825.25;206893;1287;235551;-69
2022/11/22 15:31:46;;;;;;;66.20;32.60;;;;;;;2.03;79.81;98822.65;208529;1296;244041;-67
2022/11/22 15:37:25;;;;;;;60.90;33.00;;;;;;;1.98;80.06;98822.45;210029;1297;139691;-68
2022/11/22 15:43:00;;;;;;;70.30;32.70;;;;;;;2.02;80.36;98819.17;209852;1297;139394;-68
2022/11/22 15:48:39;;;;;;;52.10;28.60;;;;;;;2.13;80.25;98806.91;209944;1297;224598;-68
2022/11/22 15:54:04;;;;;;;43.50;24.80;;;;;;;2.19;80.66;98796.83;209982;1290;140385;-65
2022/11/22 15:59:36;;;;;;;42.30;19.90;;;;;;;2.24;80.47;98803.19;209956;1297;139851;-66
2022/11/22 16:04:47;;;;;;;53.80;25.80;;;;;;;2.21;80.36;98806.46;209503;1296;140720;-66
2022/11/22 16:10:27;;;;;;;34.30;18.80;;;;;;;2.25;80.45;98813.27;210064;1297;140317;-66
2022/11/22 16:15:36;;;;;;;63.70;26.70;;;;;;;2.14;80.15;98829.41;210094;1296;141925;-64
2022/11/22 16:21:02;;;;;;;35.90;18.40;;;;;;;2.00;80.32;98835.63;210159;1297;141136;-65
2022/11/22 16:26:28;;;;;;;56.10;25.80;;;;;;;1.91;80.37;98835.98;209867;1297;140533;-69
2022/11/22 16:31:40;;;;;;;59.80;27.90;;;;;;;1.81;80.49;98843.27;210099;1304;140682;-69
2022/11/22 16:36:44;;;;;;;54.30;26.40;;;;;;;1.90;81.04;98841.23;210021;1290;139941;-67
2022/11/22 16:41:47;;;;;;;52.40;24.00;;;;;;;1.94;81.18;98840.42;210120;1288;141043;-72
2022/11/22 16:46:51;;;;;;;89.50;31.10;;;;;;;1.92;80.93;98837.31;209887;1296;139867;-71
2022/11/22 16:51:56;;;;;;;56.40;29.10;;;;;;;1.90;81.00;98837.67;210015;1295;141347;-67
2022/11/22 16:57:00;;;;;;;37.20;17.60;;;;;;;1.85;81.38;98846.27;210071;1288;140681;-70
2022/11/22 17:02:15;;;;;;;54.20;25.10;;;;;;;1.86;81.09;98849.48;210026;1296;141068;-70
2022/11/22 17:07:19;;;;;;;49.80;25.60;;;;;;;1.75;81.02;98858.08;210154;1294;140597;-70
2022/11/22 17:12:26;;;;;;;68.20;31.20;;;;;;;1.65;81.52;98861.92;210171;1297;141018;-66
2022/11/22 17:17:36;;;;;;;69.40;29.70;;;;;;;1.58;81.40;98862.23;208856;1288;140596;-67
2022/11/22 17:22:42;;;;;;;46.00;25.90;;;;;;;1.51;81.92;98871.00;210019;1297;140121;-68
2022/11/22 17:27:48;;;;;;;47.90;21.10;;;;;;;1.49;81.92;98869.46;209255;1295;143108;-70
2022/11/22 17:32:56;;;;;;;42.00;22.10;;;;;;;1.46;82.11;98871.63;209853;1288;244578;-68
2022/11/22 17:38:00;;;;;;;52.90;25.10;;;;;;;1.43;82.23;98868.95;209850;1293;141613;-65
2022/11/22 17:43:06;;;;;;;46.70;21.30;;;;;;;1.43;82.57;98869.23;208206;1295;141482;-66
2022/11/22 17:48:11;;;;;;;52.70;23.70;;;;;;;1.46;82.43;98870.13;210021;1281;140765;-64
2022/11/22 17:53:16;;;;;;;50.40;25.50;;;;;;;1.44;82.78;98874.20;208900;1295;139837;-66
2022/11/22 17:58:19;;;;;;;42.50;20.70;;;;;;;1.51;82.79;98874.32;210009;1288;140061;-66
2022/11/22 18:03:24;;;;;;;55.20;25.00;;;;;;;1.52;82.78;98873.18;210143;1297;140097;-68
2022/11/22 18:08:28;;;;;;;59.20;25.80;;;;;;;1.52;82.94;98873.02;209659;1295;141447;-66
2022/11/22 18:13:35;;;;;;;65.50;29.00;;;;;;;1.48;83.06;98870.75;210037;1295;139342;-68
2022/11/22 18:18:42;;;;;;;48.70;23.50;;;;;;;1.57;83.08;98871.80;209948;1294;141134;-69
2022/11/22 18:24:03;;;;;;;58.00;27.00;;;;;;;1.61;83.18;98879.02;207047;1281;142087;-68
2022/11/22 18:29:08;;;;;;;51.80;26.90;;;;;;;1.62;82.87;98883.42;207438;1288;140925;-66
2022/11/22 18:34:32;;;;;;;46.70;22.00;;;;;;;1.52;82.90;98869.79;210115;1291;141504;-69
2022/11/22 18:39:38;;;;;;;47.40;22.40;;;;;;;1.56;83.41;98860.49;209792;1293;139945;-66
2022/11/22 18:44:42;;;;;;;50.30;25.00;;;;;;;1.64;83.43;98861.23;209828;1296;140507;-67
2022/11/22 18:49:46;;;;;;;51.40;22.20;;;;;;;1.71;83.50;98863.01;209795;1298;139446;-68
2022/11/22 18:54:55;;;;;;;46.50;24.00;;;;;;;1.80;83.20;98874.48;209937;1294;141711;-67
2022/11/22 18:59:59;;;;;;;80.10;32.00;;;;;;;1.75;83.13;98875.83;210076;1287;140983;-66
2022/11/22 19:05:04;;;;;;;64.70;23.60;;;;;;;1.68;82.96;98867.48;209796;1297;141051;-68
2022/11/22 19:10:08;;;;;;;265.10;77.70;;;;;;;1.65;83.37;98873.41;210124;1297;140266;-67
2022/11/22 19:15:12;;;;;;;58.00;25.30;;;;;;;1.64;83.15;98871.59;209086;1288;142633;-66
2022/11/22 19:20:18;;;;;;;59.70;27.60;;;;;;;1.67;83.22;98874.67;209957;1295;140996;-67
2022/11/22 19:25:42;;;;;;;49.10;23.10;;;;;;;1.67;83.40;98865.58;210175;1297;139667;-70
2022/11/22 19:30:46;;;;;;;56.10;28.20;;;;;;;1.74;83.68;98864.67;208968;1302;140722;-68
2022/11/22 19:36:01;;;;;;;49.70;24.50;;;;;;;1.80;83.37;98871.19;210023;1288;140724;-66
2022/11/22 19:41:11;;;;;;;46.50;22.90;;;;;;;1.80;83.52;98869.38;210033;1303;140009;-65
2022/11/22 19:46:15;;;;;;;52.80;27.00;;;;;;;1.84;83.04;98867.27;210001;1297;140756;-73
2022/11/22 19:51:20;;;;;;;43.60;20.70;;;;;;;1.82;83.38;98870.55;209412;1303;140063;-68
2022/11/22 19:56:26;;;;;;;52.60;26.90;;;;;;;1.93;83.49;98876.26;209003;1288;140356;-70
2022/11/22 20:01:31;;;;;;;39.90;20.10;;;;;;;1.96;83.33;98884.91;208402;1294;139779;-69
2022/11/22 20:06:35;;;;;;;56.20;23.60;;;;;;;1.93;83.11;98893.64;208561;1291;140168;-64
2022/11/22 20:11:41;;;;;;;38.90;23.00;;;;;;;1.96;83.29;98897.85;210029;1296;139851;-71
2022/11/22 20:16:44;;;;;;;49.40;21.50;;;;;;;1.93;83.23;98906.02;208915;1293;140143;-65
2022/11/22 20:21:48;;;;;;;49.20;19.60;;;;;;;1.93;83.12;98906.17;209984;1295;140794;-69
2022/11/22 20:26:53;;;;;;;42.00;21.50;;;;;;;1.96;83.52;98900.89;210113;1297;140392;-70
2022/11/22 20:32:00;;;;;;;37.60;17.50;;;;;;;1.97;83.19;98888.23;210152;1293;140114;-69
2022/11/22 20:37:05;;;;;;;42.70;21.80;;;;;;;1.98;82.94;98880.03;209962;1297;141388;-69
2022/11/22 20:42:10;;;;;;;51.70;22.00;;;;;;;1.92;83.06;98885.95;210009;1302;140105;-69
2022/11/22 20:47:37;;;;;;;42.40;22.00;;;;;;;1.89;83.24;98885.83;210116;1301;140197;-70
2022/11/22 20:52:44;;;;;;;50.20;24.80;;;;;;;1.90;83.44;98890.31;210166;1297;139778;-69
2022/11/22 20:57:50;;;;;;;42.00;22.30;;;;;;;1.91;83.33;98891.05;210134;1288;141552;-69
2022/11/22 21:02:55;;;;;;;51.20;25.30;;;;;;;1.89;83.55;98887.36;210255;1288;140154;-68
2022/11/22 21:08:02;;;;;;;37.50;19.20;;;;;;;1.93;83.59;98888.63;208784;1290;141690;-67
2022/11/22 21:13:08;;;;;;;235.30;70.60;;;;;;;1.92;83.26;98888.23;209407;1297;140227;-66
2022/11/22 21:18:14;;;;;;;56.50;24.80;;;;;;;1.90;83.37;98895.94;210027;1303;142068;-65
2022/11/22 21:23:29;;;;;;;102.10;35.60;;;;;;;1.85;83.63;98899.20;210052;1295;141293;-66
2022/11/22 21:28:35;;;;;;;58.20;26.70;;;;;;;1.90;83.65;98898.04;209866;1297;142855;-67
2022/11/22 21:33:45;;;;;;;45.20;22.50;;;;;;;1.92;83.61;98895.45;209953;1296;140561;-67
2022/11/22 21:38:55;;;;;;;54.30;26.60;;;;;;;1.87;83.79;98892.09;209395;1298;238095;-64
2022/11/22 21:44:07;;;;;;;43.60;19.10;;;;;;;1.83;83.91;98896.21;208568;1288;141122;-67
2022/11/22 21:49:17;;;;;;;32.20;18.90;;;;;;;1.84;83.82;98898.92;209465;1293;139678;-67
2022/11/22 21:54:25;;;;;;;49.60;20.70;;;;;;;1.86;83.70;98899.73;210089;1296;140325;-69
2022/11/22 21:59:32;;;;;;;44.10;19.50;;;;;;;1.91;83.87;98897.88;209951;1297;248120;-65
2022/11/22 22:04:40;;;;;;;39.50;17.00;;;;;;;1.98;83.83;98895.52;209898;1293;140710;-68
2022/11/22 22:09:47;;;;;;;48.20;21.50;;;;;;;2.01;83.69;98892.13;210105;1288;236670;-69
2022/11/22 22:14:56;;;;;;;35.80;18.10;;;;;;;2.06;83.79;98890.52;209876;1298;245877;-69
2022/11/22 22:20:00;;;;;;;40.80;20.60;;;;;;;2.03;83.59;98895.24;209970;1290;218790;-69
2022/11/22 22:25:05;;;;;;;41.90;19.30;;;;;;;2.04;83.94;98900.86;209870;1297;139448;-69
2022/11/22 22:30:12;;;;;;;37.60;19.00;;;;;;;2.07;83.77;98913.52;210060;1297;140550;-68
2022/11/22 22:35:16;;;;;;;44.80;20.80;;;;;;;2.02;83.62;98910.21;209881;1297;140053;-71
2022/11/22 22:40:24;;;;;;;40.50;20.90;;;;;;;2.04;83.86;98906.86;209944;1295;140967;-68
2022/11/22 22:45:36;;;;;;;46.20;21.90;;;;;;;2.07;83.93;98905.80;210045;1305;141675;-66
2022/11/22 22:50:43;;;;;;;43.60;21.50;;;;;;;2.06;84.01;98910.05;210086;1297;140753;-68
2022/11/22 22:55:54;;;;;;;35.00;16.90;;;;;;;2.08;83.91;98912.64;209931;1288;140621;-66
2022/11/22 23:01:17;;;;;;;41.40;18.90;;;;;;;2.16;83.78;98901.96;209976;1297;208912;-64
2022/11/22 23:06:23;;;;;;;46.70;21.70;;;;;;;2.23;83.78;98904.11;210135;1301;139477;-67
2022/11/22 23:16:53;;;;;;;48.20;23.50;;;;;;;2.16;83.58;98908.19;209983;1303;223436;-71
2022/11/22 23:22:00;;;;;;;;;;;;;;;2.15;83.78;98907.53;210344;1297;139881;-78
2022/11/22 23:27:04;;;;;;;237.10;57.50;;;;;;;2.11;83.49;98910.19;210779;1298;126000;-68
2022/11/22 23:32:07;;;;;;;108.00;36.50;;;;;;;2.08;83.73;98912.52;208868;1295;140713;-64
2022/11/22 23:37:11;;;;;;;92.30;38.90;;;;;;;2.02;83.77;98906.04;208325;1294;141682;-68
2022/11/22 23:42:15;;;;;;;46.40;23.40;;;;;;;2.01;83.91;98903.81;210036;1297;140644;-67
2022/11/22 23:47:18;;;;;;;61.10;27.90;;;;;;;2.00;83.78;98897.06;210089;1297;139940;-69